createdAt,value
2023-05-05T00:02:22.366Z,6.53
2023-05-05T00:05:25.558Z,6.03
2023-05-05T00:08:32.581Z,6.13
2023-05-05T00:11:34.441Z,5.80
2023-05-05T00:14:36.345Z,6.03
2023-05-05T00:17:38.426Z,4.87
2023-05-05T00:20:40.428Z,5.25
2023-05-05T00:23:46.619Z,5.22
2023-05-05T00:26:48.475Z,4.88
2023-05-05T00:29:50.278Z,5.30
2023-05-05T00:32:52.197Z,4.60
2023-05-05T00:35:54.088Z,4.53
2023-05-05T00:38:55.954Z,4.05
2023-05-05T00:41:57.932Z,4.20
2023-05-05T00:44:59.701Z,4.00
2023-05-05T00:48:01.765Z,3.83
2023-05-05T00:51:08.607Z,4.00
2023-05-05T00:54:10.430Z,4.10
2023-05-05T00:57:12.484Z,4.40
2023-05-05T01:00:14.605Z,3.87
2023-05-05T01:03:16.800Z,3.93
2023-05-05T01:06:25.313Z,3.72
2023-05-05T01:10:18.216Z,4.20
2023-05-05T01:13:24.908Z,3.42
2023-05-05T01:16:31.085Z,3.83
2023-05-05T01:19:53.985Z,3.67
2023-05-05T01:23:06.051Z,3.67
2023-05-05T01:26:44.039Z,3.90
2023-05-05T01:30:13.757Z,4.05
2023-05-05T01:33:15.899Z,3.50
2023-05-05T01:36:31.765Z,3.50
2023-05-05T01:39:37.201Z,3.55
2023-05-05T01:42:39.451Z,3.72
2023-05-05T01:45:42.710Z,3.63
2023-05-05T01:48:44.594Z,4.00
2023-05-05T01:51:46.743Z,4.03
2023-05-05T01:54:52.310Z,4.00
2023-05-05T01:57:54.114Z,3.90
2023-05-05T02:00:57.179Z,3.95
2023-05-05T02:03:59.117Z,4.07
2023-05-05T02:07:01.793Z,3.70
2023-05-05T02:10:03.873Z,4.57
2023-05-05T02:13:05.880Z,4.32
2023-05-05T02:16:07.822Z,4.68
2023-05-05T02:19:09.919Z,4.70
2023-05-05T02:22:12.538Z,4.23
2023-05-05T02:25:17.620Z,5.15
2023-05-05T02:28:21.940Z,4.93
2023-05-05T02:31:24.394Z,4.60
2023-05-05T02:34:27.032Z,5.53
2023-05-05T02:37:29.606Z,4.97
2023-05-05T02:40:36.157Z,4.90
2023-05-05T02:43:38.058Z,5.47
2023-05-05T02:46:39.921Z,5.53
2023-05-05T02:49:42.812Z,5.47
2023-05-05T02:52:44.834Z,5.27
2023-05-05T02:55:55.563Z,4.68
2023-05-05T02:59:18.524Z,4.97
2023-05-05T03:02:28.050Z,4.85
2023-05-05T03:05:33.625Z,5.73
2023-05-05T03:08:49.152Z,5.70
2023-05-05T03:11:55.047Z,5.60
2023-05-05T03:14:56.865Z,6.28
2023-05-05T03:17:58.921Z,5.72
2023-05-05T03:21:08.761Z,5.80
2023-05-05T03:24:18.684Z,6.17
2023-05-05T03:27:20.894Z,6.30
2023-05-05T03:30:22.731Z,6.80
2023-05-05T03:33:24.617Z,6.47
2023-05-05T03:36:29.420Z,6.83
2023-05-05T03:39:31.395Z,6.83
2023-05-05T03:42:33.240Z,6.45
2023-05-05T03:45:35.102Z,7.13
2023-05-05T03:48:36.996Z,7.20
2023-05-05T03:51:38.886Z,6.97
2023-05-05T03:54:40.983Z,6.70
2023-05-05T03:57:42.920Z,6.45
2023-05-05T04:00:44.971Z,6.28
2023-05-05T04:03:46.890Z,4.68
2023-05-05T04:06:48.738Z,5.00
2023-05-05T04:09:50.818Z,5.20
2023-05-05T04:12:52.754Z,4.90
2023-05-05T04:15:55.279Z,4.78
2023-05-05T04:18:57.146Z,4.85
2023-05-05T04:21:59.646Z,5.13
2023-05-05T04:25:01.575Z,4.67
2023-05-05T04:28:03.521Z,4.60
2023-05-05T04:31:06.230Z,4.55
2023-05-05T04:34:08.233Z,4.13
2023-05-05T04:37:10.090Z,4.50
2023-05-05T04:40:12.250Z,4.50
2023-05-05T04:43:17.312Z,4.70
2023-05-05T04:46:19.633Z,4.47
2023-05-05T04:49:21.478Z,3.85
2023-05-05T04:52:23.309Z,4.73
2023-05-05T04:55:25.199Z,4.30
2023-05-05T04:58:27.357Z,4.07
2023-05-05T05:01:29.194Z,4.28
2023-05-05T05:04:31.041Z,4.40
2023-05-05T05:07:33.116Z,4.00
2023-05-05T05:10:35.877Z,4.23
2023-05-05T05:13:37.754Z,4.40
2023-05-05T05:16:39.585Z,4.80
2023-05-05T05:19:41.445Z,3.72
2023-05-05T05:22:43.344Z,4.03
2023-05-05T05:25:45.190Z,3.93
2023-05-05T05:28:47.343Z,3.97
2023-05-05T05:31:50.490Z,4.07
2023-05-05T05:34:52.600Z,3.75
2023-05-05T05:37:54.418Z,4.30
2023-05-05T05:40:56.553Z,4.00
2023-05-05T05:43:58.461Z,3.65
2023-05-05T05:47:00.482Z,4.05
2023-05-05T05:50:02.740Z,3.20
2023-05-05T05:53:04.739Z,3.87
2023-05-05T05:56:06.964Z,3.53
2023-05-05T05:59:10.371Z,3.35
2023-05-05T06:02:12.221Z,3.40
2023-05-05T06:05:17.254Z,3.13
2023-05-05T06:08:20.389Z,3.33
2023-05-05T06:11:22.615Z,3.70
2023-05-05T06:14:24.833Z,3.00
2023-05-05T06:17:26.776Z,3.00
2023-05-05T06:20:28.684Z,3.67
2023-05-05T06:23:30.848Z,3.50
2023-05-05T06:26:32.727Z,3.23
2023-05-05T06:29:34.722Z,3.60
2023-05-05T06:32:36.561Z,3.42
2023-05-05T06:35:38.490Z,3.50
2023-05-05T06:38:40.379Z,3.60
2023-05-05T06:41:42.399Z,3.53
2023-05-05T06:44:44.921Z,3.70
2023-05-05T06:47:47.032Z,3.25
2023-05-05T06:50:49.065Z,3.50
2023-05-05T06:53:51.487Z,3.63
2023-05-05T06:56:53.716Z,3.40
2023-05-05T06:59:56.283Z,3.70
2023-05-05T07:02:58.057Z,3.30
2023-05-05T07:06:00.195Z,4.40
2023-05-05T07:09:02.286Z,4.23
2023-05-05T07:12:04.652Z,4.90
2023-05-05T07:15:19.196Z,4.90
2023-05-05T07:18:28.414Z,5.20
2023-05-05T07:21:30.597Z,4.90
2023-05-05T07:24:32.505Z,5.83
2023-05-05T07:27:34.748Z,6.40
2023-05-05T07:30:39.194Z,6.97
2023-05-05T07:33:41.579Z,7.55
2023-05-05T07:36:44.063Z,11.15
2023-05-05T07:39:47.772Z,9.20
2023-05-05T07:42:49.540Z,13.87
2023-05-05T07:45:51.992Z,11.18
2023-05-05T07:48:53.829Z,8.40
2023-05-05T07:51:55.709Z,8.13
2023-05-05T07:54:57.535Z,8.07
2023-05-05T07:57:59.361Z,8.10
2023-05-05T08:01:01.602Z,7.50
2023-05-05T08:04:03.658Z,8.20
2023-05-05T08:07:05.726Z,8.05
2023-05-05T08:10:10.143Z,7.53
2023-05-05T08:13:13.778Z,6.87
2023-05-05T08:16:15.995Z,7.50
2023-05-05T08:19:28.982Z,7.53
2023-05-05T08:22:31.678Z,6.65
2023-05-05T08:25:33.607Z,6.90
2023-05-05T08:28:36.881Z,7.57
2023-05-05T08:31:39.233Z,14.27
2023-05-05T08:34:42.487Z,6.55
2023-05-05T08:37:44.434Z,5.90
2023-05-05T08:40:46.512Z,5.23
2023-05-05T08:43:49.475Z,5.73
2023-05-05T08:46:51.540Z,5.60
2023-05-05T08:49:54.212Z,7.25
2023-05-05T08:53:05.069Z,5.57
2023-05-05T08:56:07.762Z,6.17
2023-05-05T08:59:10.478Z,5.77
2023-05-05T09:02:12.379Z,5.25
2023-05-05T09:05:14.417Z,6.30
2023-05-05T09:08:16.471Z,5.40
2023-05-05T09:11:18.280Z,5.67
2023-05-05T09:14:20.192Z,5.07
2023-05-05T09:17:25.719Z,4.57
2023-05-05T09:20:45.834Z,6.07
2023-05-05T09:24:08.942Z,5.10
2023-05-05T09:27:21.863Z,5.27
2023-05-05T09:30:24.789Z,4.77
2023-05-05T09:33:33.465Z,4.90
2023-05-05T09:36:44.606Z,4.70
2023-05-05T09:39:54.068Z,5.13
2023-05-05T09:43:01.524Z,7.43
2023-05-05T09:46:07.864Z,5.10
2023-05-05T09:49:18.617Z,5.10
2023-05-05T09:52:20.466Z,4.85
2023-05-05T09:55:22.389Z,4.55
2023-05-05T09:58:26.208Z,5.40
2023-05-05T10:01:28.307Z,5.03
2023-05-05T10:04:31.209Z,4.85
2023-05-05T10:07:33.269Z,4.85
2023-05-05T10:10:35.219Z,5.65
2023-05-05T10:13:42.273Z,4.90
2023-05-05T10:16:51.031Z,4.90
2023-05-05T10:19:53.295Z,5.00
2023-05-05T10:22:55.231Z,5.60
2023-05-05T10:26:05.036Z,5.20
2023-05-05T10:29:08.551Z,4.57
2023-05-05T10:32:51.208Z,4.77
2023-05-05T10:35:44.943Z,5.05
2023-05-05T10:38:47.135Z,5.25
2023-05-05T10:41:48.984Z,5.43
2023-05-05T10:44:51.587Z,4.77
2023-05-05T10:47:53.499Z,5.00
2023-05-05T10:50:59.621Z,4.40
2023-05-05T10:54:06.976Z,5.50
2023-05-05T10:57:10.489Z,5.25
2023-05-05T11:00:38.565Z,4.40
2023-05-05T11:03:43.637Z,5.20
2023-05-05T11:07:14.739Z,4.47
2023-05-05T11:10:20.799Z,4.82
2023-05-05T11:13:23.081Z,4.80
2023-05-05T11:16:50.185Z,5.33
2023-05-05T11:19:53.542Z,4.67
2023-05-05T11:23:05.162Z,4.82
2023-05-05T11:26:07.923Z,5.85
2023-05-05T11:29:09.789Z,5.00
2023-05-05T11:32:16.141Z,5.23
2023-05-05T11:35:18.215Z,4.97
2023-05-05T11:38:20.053Z,4.68
2023-05-05T11:41:32.093Z,4.80
2023-05-05T11:44:34.314Z,4.93
2023-05-05T11:47:36.623Z,4.77
2023-05-05T11:50:38.751Z,3.97
2023-05-05T11:53:44.659Z,4.20
2023-05-05T11:56:54.774Z,5.15
2023-05-05T12:00:08.331Z,4.10
2023-05-05T12:03:10.640Z,4.63
2023-05-05T12:06:12.511Z,5.10
2023-05-05T12:09:18.578Z,4.13
2023-05-05T12:12:20.748Z,3.67
2023-05-05T12:15:32.499Z,3.90
2023-05-05T12:18:34.438Z,4.10
2023-05-05T12:21:36.395Z,4.30
2023-05-05T12:24:38.343Z,4.20
2023-05-05T12:27:41.522Z,15.57
2023-05-05T12:30:43.394Z,4.70
2023-05-05T12:33:45.379Z,4.67
2023-05-05T12:36:47.443Z,4.37
2023-05-05T12:39:50.278Z,4.25
2023-05-05T12:42:53.939Z,4.47
2023-05-05T12:46:02.633Z,4.22
2023-05-05T12:49:05.728Z,4.10
2023-05-05T12:52:08.108Z,4.17
2023-05-05T12:55:10.625Z,4.38
2023-05-05T12:58:12.861Z,4.70
2023-05-05T13:01:14.819Z,4.82
2023-05-05T13:04:17.016Z,4.60
2023-05-05T13:07:19.940Z,4.50
2023-05-05T13:10:21.831Z,4.80
2023-05-05T13:13:23.617Z,5.15
2023-05-05T13:16:25.582Z,4.38
2023-05-05T13:19:27.935Z,5.33
2023-05-05T13:22:29.792Z,3.60
2023-05-05T13:25:31.676Z,4.47
2023-05-05T13:28:33.600Z,4.60
2023-05-05T13:31:35.657Z,4.10
2023-05-05T13:34:39.329Z,4.87
2023-05-05T13:37:42.705Z,4.30
2023-05-05T13:40:44.671Z,3.90
2023-05-05T13:43:46.641Z,4.33
2023-05-05T13:46:48.704Z,4.13
2023-05-05T13:49:50.773Z,3.57
2023-05-05T13:52:52.660Z,3.97
2023-05-05T13:55:54.804Z,3.70
2023-05-05T13:58:56.727Z,3.22
2023-05-05T14:01:59.123Z,2.83
2023-05-05T14:05:01.205Z,3.07
2023-05-05T14:08:03.517Z,3.20
2023-05-05T14:11:05.460Z,3.75
2023-05-05T14:14:07.371Z,3.78
2023-05-05T14:17:09.280Z,3.65
2023-05-05T14:20:12.047Z,4.33
2023-05-05T14:23:13.855Z,4.17
2023-05-05T14:26:15.749Z,4.47
2023-05-05T14:29:17.730Z,4.57
2023-05-05T14:32:19.607Z,5.68
2023-05-05T14:35:21.512Z,5.17
2023-05-05T14:38:23.662Z,4.90
2023-05-05T14:41:26.129Z,5.00
2023-05-05T14:44:28.566Z,5.30
2023-05-05T14:47:30.454Z,4.80
2023-05-05T14:50:32.362Z,4.37
2023-05-05T14:53:34.793Z,3.93
2023-05-05T14:56:36.677Z,4.25
2023-05-05T14:59:38.771Z,5.00
2023-05-05T15:02:40.741Z,3.97
2023-05-05T15:05:42.967Z,3.50
2023-05-05T15:08:44.930Z,4.30
2023-05-05T15:11:46.807Z,3.65
2023-05-05T15:14:48.824Z,3.40
2023-05-05T15:17:50.693Z,3.75
2023-05-05T15:20:52.606Z,4.50
2023-05-05T15:23:54.610Z,3.73
2023-05-05T15:26:56.425Z,3.80
2023-05-05T15:29:58.287Z,3.45
2023-05-05T15:33:00.203Z,2.92
2023-05-05T15:36:02.330Z,3.43
2023-05-05T15:39:04.614Z,3.57
2023-05-05T15:42:06.413Z,3.78
2023-05-05T15:45:12.502Z,3.42
2023-05-05T15:48:14.392Z,5.00
2023-05-05T15:51:16.485Z,4.13
2023-05-05T15:54:18.317Z,4.50
2023-05-05T15:57:20.637Z,4.13
2023-05-05T16:00:29.047Z,3.80
2023-05-05T16:03:39.943Z,3.80
2023-05-05T16:06:41.811Z,4.10
2023-05-05T16:09:44.582Z,4.00
2023-05-05T16:12:46.570Z,4.15
2023-05-05T16:15:48.468Z,3.72
2023-05-05T16:18:50.361Z,3.90
2023-05-05T16:21:52.959Z,3.60
2023-05-05T16:24:54.864Z,3.50
2023-05-05T16:27:57.702Z,3.63
2023-05-05T16:30:59.474Z,3.55
2023-05-05T16:34:01.378Z,3.95
2023-05-05T16:37:03.606Z,3.70
2023-05-05T16:40:06.268Z,3.67
2023-05-05T16:43:17.015Z,3.55
2023-05-05T16:46:18.950Z,3.20
2023-05-05T16:49:21.029Z,3.40
2023-05-05T16:52:22.890Z,4.20
2023-05-05T16:55:26.070Z,3.83
2023-05-05T16:58:28.369Z,3.80
2023-05-05T17:01:30.459Z,3.20
2023-05-05T17:04:32.279Z,3.22
2023-05-05T17:07:34.184Z,3.60
2023-05-05T17:10:36.041Z,3.67
2023-05-05T17:13:37.968Z,3.45
2023-05-05T17:16:39.883Z,3.20
2023-05-05T17:19:42.950Z,2.95
2023-05-05T17:22:46.728Z,3.43
2023-05-05T17:25:48.617Z,3.30
2023-05-05T17:28:50.444Z,3.13
2023-05-05T17:31:52.389Z,3.58
2023-05-05T17:34:54.246Z,3.22
2023-05-05T17:37:56.329Z,3.13
2023-05-05T17:40:58.083Z,3.30
2023-05-05T17:43:59.930Z,3.00
2023-05-05T17:47:03.040Z,3.20
2023-05-05T17:50:05.209Z,3.72
2023-05-05T17:53:07.069Z,3.63
2023-05-05T17:56:09.319Z,3.47
2023-05-05T17:59:11.260Z,3.95
2023-05-05T18:02:13.183Z,3.65
2023-05-05T18:05:15.113Z,3.63
2023-05-05T18:08:17.038Z,3.40
2023-05-05T18:11:21.351Z,3.50
2023-05-05T18:14:24.089Z,3.90
2023-05-05T18:17:26.491Z,4.07
2023-05-05T18:20:28.456Z,3.45
2023-05-05T18:23:30.272Z,4.10
2023-05-05T18:26:35.201Z,4.80
2023-05-05T18:29:37.039Z,4.57
2023-05-05T18:32:39.140Z,4.93
2023-05-05T18:35:41.177Z,4.57
2023-05-05T18:38:43.120Z,4.97
2023-05-05T18:41:45.120Z,4.53
2023-05-05T18:44:46.958Z,6.65
2023-05-05T18:47:48.851Z,4.60
2023-05-05T18:50:51.560Z,4.70
2023-05-05T18:53:53.522Z,5.17
2023-05-05T18:56:55.422Z,4.60
2023-05-05T18:59:57.312Z,5.60
2023-05-05T19:02:59.204Z,5.65
2023-05-05T19:06:01.464Z,5.60
2023-05-05T19:09:03.448Z,5.40
2023-05-05T19:12:05.682Z,5.03
2023-05-05T19:15:08.678Z,5.35
2023-05-05T19:18:11.054Z,5.45
2023-05-05T19:21:13.066Z,5.45
2023-05-05T19:24:14.985Z,5.57
2023-05-05T19:27:20.633Z,5.40
2023-05-05T19:30:22.641Z,5.85
2023-05-05T19:33:24.526Z,6.55
2023-05-05T19:36:26.402Z,5.95
2023-05-05T19:39:28.218Z,6.17
2023-05-05T19:42:34.661Z,6.03
2023-05-05T19:45:36.530Z,6.28
2023-05-05T19:48:38.389Z,5.40
2023-05-05T19:51:40.266Z,5.18
2023-05-05T19:54:43.583Z,5.23
2023-05-05T19:57:49.615Z,4.57
2023-05-05T20:00:51.566Z,5.28
2023-05-05T20:03:54.602Z,5.40
2023-05-05T20:06:57.545Z,4.90
2023-05-05T20:10:00.911Z,5.10
2023-05-05T20:13:02.791Z,5.40
2023-05-05T20:16:06.154Z,5.22
2023-05-05T20:19:08.168Z,5.28
2023-05-05T20:22:09.970Z,5.70
2023-05-05T20:25:12.348Z,5.70
2023-05-05T20:28:14.137Z,6.07
2023-05-05T20:31:16.152Z,6.13
2023-05-05T20:34:18.009Z,5.95
2023-05-05T20:37:22.037Z,6.38
2023-05-05T20:40:24.010Z,6.03
2023-05-05T20:43:25.891Z,6.07
2023-05-05T20:46:27.855Z,6.30
2023-05-05T20:49:30.694Z,5.95
2023-05-05T20:52:34.324Z,5.90
2023-05-05T20:55:36.219Z,5.63
2023-05-05T20:58:38.042Z,6.33
2023-05-05T21:01:40.090Z,6.20
2023-05-05T21:04:41.892Z,6.70
2023-05-05T21:07:44.869Z,6.35
2023-05-05T21:10:46.816Z,6.07
2023-05-05T21:13:52.743Z,6.60
2023-05-05T21:16:54.555Z,6.50
2023-05-05T21:19:57.114Z,6.68
2023-05-05T21:22:58.922Z,6.57
2023-05-05T21:26:00.754Z,6.53
2023-05-05T21:29:02.559Z,6.37
2023-05-05T21:32:05.385Z,7.40
2023-05-05T21:35:08.134Z,6.95
2023-05-05T21:38:10.024Z,6.57
2023-05-05T21:41:11.934Z,6.60
2023-05-05T21:44:13.750Z,6.43
2023-05-05T21:47:16.507Z,6.53
2023-05-05T21:50:18.439Z,6.45
2023-05-05T21:53:20.251Z,6.80
2023-05-05T21:56:22.033Z,6.00
2023-05-05T21:59:27.719Z,6.27
2023-05-05T22:02:29.650Z,6.90
2023-05-05T22:05:31.679Z,6.50
2023-05-05T22:08:33.458Z,6.20
2023-05-05T22:11:35.373Z,6.23
2023-05-05T22:14:40.866Z,5.77
2023-05-05T22:17:42.767Z,5.63
2023-05-05T22:20:44.718Z,6.65
2023-05-05T22:23:46.693Z,5.90
2023-05-05T22:26:48.502Z,6.17
2023-05-05T22:29:54.890Z,5.30
2023-05-05T22:32:56.808Z,5.43
2023-05-05T22:35:58.678Z,5.68
2023-05-05T22:39:00.544Z,5.30
2023-05-05T22:42:06.672Z,5.73
2023-05-05T22:45:09.853Z,5.27
2023-05-05T22:48:11.842Z,5.80
2023-05-05T22:51:13.694Z,6.25
2023-05-05T22:54:15.658Z,5.03
2023-05-05T22:57:17.475Z,5.47
2023-05-05T23:00:19.330Z,5.17
2023-05-05T23:03:21.123Z,5.70
2023-05-05T23:06:23.018Z,5.30
2023-05-05T23:09:24.814Z,4.80
2023-05-05T23:12:26.606Z,5.10
2023-05-05T23:15:28.884Z,5.87
2023-05-05T23:18:30.747Z,5.15
2023-05-05T23:21:36.231Z,4.57
2023-05-05T23:24:43.836Z,5.13
2023-05-05T23:27:45.726Z,5.17
2023-05-05T23:30:47.517Z,4.57
2023-05-05T23:33:49.544Z,4.30
2023-05-05T23:36:51.437Z,4.82
2023-05-05T23:39:53.229Z,4.13
2023-05-05T23:42:55.062Z,4.63
2023-05-05T23:45:56.932Z,4.57
2023-05-05T23:48:58.714Z,4.57
2023-05-05T23:52:00.903Z,4.20
2023-05-05T23:55:02.781Z,3.95
2023-05-05T23:58:04.597Z,4.23
